Terminal Aerodrome Forecast
Issued by NWS Houston/Galveston, TX

Home | Current Version | Previous Version | Text Only | Print | Product List | Glossary On
Versions: 1 2 3 4 5 6 7 8 9 10 11 12 13 14 15 16 17 18 19 20 21 22 23
000
FTUS44 KHGX 282321
TAFCLL
TAF
KCLL 282321Z 2900/2924 09009KT P6SM SCT045
     FM290100 12007KT P6SM FEW100
     FM291000 14003KT 6SM BR SCT007
      TEMPO 2912/2914 BKN007
     FM291400 17007KT P6SM BKN020
     FM291800 18008KT P6SM SCT040=

USA.gov is the U.S. government's official web portal to all federal, state and local government web resources and services.